Time;durP1;ratioP1;P1;durP2;ratioP2;P2;SDS_P1;SDS_P2;PMS_P1;PMS_P2;Temp;Humidity;BMP_temperature;BMP_pressure;BME280_temperature;BME280_humidity;BME280_pressure;Samples;Min_cycle;Max_cycle;Signal;HPM_P1;HPM_P2
2022/02/19 00:00:51;;;;;;;15.85;5.25;;;;;;;;;;4952706;28;20354;-62
2022/02/19 00:03:17;;;;;;;10.40;4.45;;;;;;;;;;4952058;28;20026;-62
2022/02/19 00:05:42;;;;;;;11.23;4.45;;;;;;;;;;4953024;28;20485;-61
2022/02/19 00:08:09;;;;;;;13.50;5.03;;;;;;;;;;4953374;28;20328;-61
2022/02/19 00:10:34;;;;;;;14.13;4.85;;;;;;;;;;4952820;28;20404;-61
2022/02/19 00:13:00;;;;;;;11.25;4.28;;;;;;;;;;4951609;28;20405;-61
2022/02/19 00:15:25;;;;;;;12.65;4.03;;;;;;;;;;4952968;28;20344;-64
2022/02/19 00:17:50;;;;;;;10.85;3.78;;;;;;;;;;4951735;28;20057;-62
2022/02/19 00:20:16;;;;;;;9.15;3.08;;;;;;;;;;4951926;28;20475;-63
2022/02/19 00:22:42;;;;;;;6.50;3.53;;;;;;;;;;4951557;28;20357;-61
2022/02/19 00:25:09;;;;;;;8.25;3.03;;;;;;;;;;4951603;28;20416;-62
2022/02/19 00:27:34;;;;;;;7.45;3.03;;;;;;;;;;4952084;28;20302;-62
2022/02/19 00:29:59;;;;;;;7.00;3.05;;;;;;;;;;4951359;28;20329;-61
2022/02/19 00:32:25;;;;;;;10.60;3.83;;;;;;;;;;4952956;28;20302;-62
2022/02/19 00:34:51;;;;;;;11.35;4.15;;;;;;;;;;4951507;28;20361;-62
2022/02/19 00:37:16;;;;;;;8.30;3.67;;;;;;;;;;4951384;28;20798;-62
2022/02/19 00:39:42;;;;;;;8.60;3.70;;;;;;;;;;4951021;28;20514;-62
2022/02/19 00:42:07;;;;;;;8.70;3.50;;;;;;;;;;4952798;28;20408;-63
2022/02/19 00:44:32;;;;;;;6.60;2.83;;;;;;;;;;4951438;28;20404;-62
2022/02/19 00:46:59;;;;;;;7.78;3.15;;;;;;;;;;4951293;28;20156;-62
2022/02/19 00:49:24;;;;;;;9.75;3.85;;;;;;;;;;4950594;28;20081;-61
2022/02/19 00:51:50;;;;;;;6.85;2.97;;;;;;;;;;4952097;28;20168;-62
2022/02/19 00:54:15;;;;;;;8.98;3.25;;;;;;;;;;4951801;28;20449;-61
2022/02/19 00:56:40;;;;;;;8.27;2.83;;;;;;;;;;4951148;28;20349;-61
2022/02/19 00:59:06;;;;;;;7.07;3.78;;;;;;;;;;4950995;28;20365;-61
2022/02/19 01:01:31;;;;;;;7.13;2.97;;;;;;;;;;4960127;28;20409;-62
2022/02/19 01:03:56;;;;;;;6.88;3.47;;;;;;;;;;4953537;28;20418;-63
2022/02/19 01:06:22;;;;;;;8.10;3.30;;;;;;;;;;4951344;28;20460;-61
2022/02/19 01:08:49;;;;;;;7.30;3.38;;;;;;;;;;4951973;28;20325;-61
2022/02/19 01:11:14;;;;;;;5.60;2.95;;;;;;;;;;4951171;28;20483;-61
2022/02/19 01:13:40;;;;;;;6.78;2.75;;;;;;;;;;4952158;28;20516;-62
2022/02/19 01:16:05;;;;;;;5.32;2.42;;;;;;;;;;4950671;28;20471;-62
2022/02/19 01:18:30;;;;;;;9.23;3.70;;;;;;;;;;4950724;28;20069;-61
2022/02/19 01:20:56;;;;;;;6.47;2.10;;;;;;;;;;4951918;28;20364;-62
2022/02/19 01:23:21;;;;;;;7.05;2.35;;;;;;;;;;4951245;28;20034;-61
2022/02/19 01:25:46;;;;;;;7.80;3.55;;;;;;;;;;4950329;28;20392;-61
2022/02/19 01:28:12;;;;;;;7.60;2.58;;;;;;;;;;4950659;28;20356;-61
2022/02/19 01:30:37;;;;;;;9.63;2.40;;;;;;;;;;4950452;28;20034;-61
2022/02/19 01:33:02;;;;;;;5.75;2.20;;;;;;;;;;4951099;28;20430;-62
2022/02/19 01:35:28;;;;;;;2.92;1.73;;;;;;;;;;4950680;28;20497;-61
2022/02/19 01:37:53;;;;;;;2.88;1.65;;;;;;;;;;4951419;28;20306;-62
2022/02/19 01:40:19;;;;;;;4.25;1.77;;;;;;;;;;4950277;28;20441;-61
2022/02/19 01:42:44;;;;;;;5.47;2.10;;;;;;;;;;4950708;28;20484;-61
2022/02/19 01:45:14;;;;;;;4.05;1.92;;;;;;;;;;4950128;28;20416;-62
2022/02/19 01:47:39;;;;;;;4.18;1.88;;;;;;;;;;4966394;28;20495;-61
2022/02/19 01:50:09;;;;;;;4.65;1.92;;;;;;;;;;4969612;28;20472;-62
2022/02/19 01:52:35;;;;;;;2.88;1.70;;;;;;;;;;4970450;28;20088;-61
2022/02/19 01:55:00;;;;;;;7.50;2.90;;;;;;;;;;4970603;28;20416;-62
2022/02/19 01:57:26;;;;;;;3.83;1.90;;;;;;;;;;4970823;28;20437;-61
2022/02/19 01:59:51;;;;;;;4.55;2.00;;;;;;;;;;4969078;28;20353;-62
2022/02/19 02:02:17;;;;;;;4.68;2.15;;;;;;;;;;4968737;28;20421;-62
2022/02/19 02:04:43;;;;;;;5.10;1.95;;;;;;;;;;4984400;28;20433;-63
2022/02/19 02:07:08;;;;;;;4.55;2.08;;;;;;;;;;4968892;28;20465;-61
2022/02/19 02:09:35;;;;;;;5.13;1.60;;;;;;;;;;4985397;28;20351;-61
2022/02/19 02:12:00;;;;;;;6.13;1.50;;;;;;;;;;4969224;28;20384;-62
2022/02/19 02:14:26;;;;;;;3.92;1.48;;;;;;;;;;4967876;28;20136;-61
2022/02/19 02:16:51;;;;;;;3.10;1.55;;;;;;;;;;4970137;28;20083;-61
2022/02/19 02:19:17;;;;;;;2.30;1.20;;;;;;;;;;4969437;28;20041;-62
2022/02/19 02:21:42;;;;;;;3.63;1.33;;;;;;;;;;4969449;28;20325;-62
2022/02/19 02:24:07;;;;;;;2.28;1.40;;;;;;;;;;4969058;28;20332;-62
2022/02/19 02:26:33;;;;;;;2.47;1.05;;;;;;;;;;4969345;28;20448;-62
2022/02/19 02:28:58;;;;;;;2.70;1.35;;;;;;;;;;4968744;28;20436;-62
2022/02/19 02:31:24;;;;;;;6.47;1.42;;;;;;;;;;4969121;28;20511;-62
2022/02/19 02:33:51;;;;;;;2.35;1.27;;;;;;;;;;4968883;28;20508;-62
2022/02/19 02:36:17;;;;;;;4.20;1.45;;;;;;;;;;4969790;28;20045;-62
2022/02/19 02:38:43;;;;;;;6.28;1.48;;;;;;;;;;4967692;28;20021;-62
2022/02/19 02:41:08;;;;;;;3.65;1.65;;;;;;;;;;4968969;28;20529;-62
2022/02/19 02:43:33;;;;;;;2.05;1.05;;;;;;;;;;4969718;28;20465;-62
2022/02/19 02:45:59;;;;;;;2.55;1.13;;;;;;;;;;4968548;28;20500;-62
2022/02/19 02:48:24;;;;;;;2.40;0.98;;;;;;;;;;4969977;28;20029;-62
2022/02/19 02:50:51;;;;;;;4.15;1.52;;;;;;;;;;4970198;28;20322;-62
2022/02/19 02:53:17;;;;;;;2.95;1.33;;;;;;;;;;4968918;28;20425;-62
2022/02/19 02:55:42;;;;;;;3.38;1.13;;;;;;;;;;4969296;28;20601;-63
2022/02/19 02:58:07;;;;;;;1.80;0.75;;;;;;;;;;4967920;28;20456;-62
2022/02/19 03:00:33;;;;;;;3.00;0.90;;;;;;;;;;4969611;28;20134;-62
2022/02/19 03:02:58;;;;;;;2.00;1.23;;;;;;;;;;4969461;28;20424;-62
2022/02/19 03:05:24;;;;;;;2.35;0.85;;;;;;;;;;4968551;28;20482;-62
2022/02/19 03:07:49;;;;;;;2.60;1.33;;;;;;;;;;4968758;28;20116;-62
2022/02/19 03:10:16;;;;;;;2.15;1.05;;;;;;;;;;4968760;28;20495;-62
2022/02/19 03:12:47;;;;;;;2.17;1.10;;;;;;;;;;4971206;28;20333;-62
2022/02/19 03:15:18;;;;;;;3.13;1.23;;;;;;;;;;4973376;28;20303;-62
2022/02/19 03:17:44;;;;;;;2.55;1.05;;;;;;;;;;4972426;28;20479;-62
2022/02/19 03:20:16;;;;;;;3.17;0.90;;;;;;;;;;4972373;28;20475;-62
2022/02/19 03:22:42;;;;;;;2.78;1.05;;;;;;;;;;4972318;28;20440;-62
2022/02/19 03:25:08;;;;;;;1.75;0.85;;;;;;;;;;4972662;28;20523;-62
2022/02/19 03:27:33;;;;;;;4.72;1.52;;;;;;;;;;4972258;28;20479;-62
2022/02/19 03:29:59;;;;;;;2.97;1.10;;;;;;;;;;4972802;28;20429;-63
2022/02/19 03:32:24;;;;;;;2.03;1.10;;;;;;;;;;4972336;28;20409;-62
2022/02/19 03:34:50;;;;;;;2.50;1.10;;;;;;;;;;4972521;28;20312;-62
2022/02/19 03:37:16;;;;;;;3.25;1.42;;;;;;;;;;4972998;28;20510;-62
2022/02/19 03:39:41;;;;;;;2.80;1.02;;;;;;;;;;4972255;28;20400;-62
2022/02/19 03:42:06;;;;;;;1.58;1.00;;;;;;;;;;4972223;28;20047;-62
2022/02/19 03:44:32;;;;;;;5.00;0.88;;;;;;;;;;4972104;28;20356;-62
2022/02/19 03:46:57;;;;;;;2.58;1.00;;;;;;;;;;4972159;28;20392;-62
2022/02/19 03:49:23;;;;;;;4.13;1.20;;;;;;;;;;4972295;28;20037;-62
2022/02/19 03:51:48;;;;;;;3.03;1.15;;;;;;;;;;4972648;28;20433;-63
2022/02/19 03:54:13;;;;;;;2.50;1.10;;;;;;;;;;4972520;28;20333;-62
2022/02/19 03:56:39;;;;;;;1.67;1.13;;;;;;;;;;4971646;28;20029;-62
2022/02/19 03:59:04;;;;;;;4.10;1.45;;;;;;;;;;4971852;28;20429;-62
2022/02/19 04:01:30;;;;;;;3.20;1.20;;;;;;;;;;4973468;28;20427;-62
2022/02/19 04:03:58;;;;;;;2.67;1.10;;;;;;;;;;4972881;28;20372;-62
2022/02/19 04:06:25;;;;;;;3.35;1.10;;;;;;;;;;4971352;28;20488;-63
2022/02/19 04:08:50;;;;;;;1.13;0.73;;;;;;;;;;4972342;28;20384;-62
2022/02/19 04:11:16;;;;;;;2.17;0.90;;;;;;;;;;4971382;28;20371;-62
2022/02/19 04:13:41;;;;;;;2.95;1.05;;;;;;;;;;4971641;28;20052;-62
2022/02/19 04:16:06;;;;;;;1.90;0.75;;;;;;;;;;4972306;28;20512;-62
2022/02/19 04:18:31;;;;;;;1.98;1.02;;;;;;;;;;4971277;28;20459;-63
2022/02/19 04:20:57;;;;;;;3.58;1.33;;;;;;;;;;4971421;28;20575;-62
2022/02/19 04:23:22;;;;;;;1.27;0.80;;;;;;;;;;4970533;28;20026;-62
2022/02/19 04:25:47;;;;;;;2.90;1.48;;;;;;;;;;4971142;28;20444;-62
2022/02/19 04:28:13;;;;;;;2.60;1.02;;;;;;;;;;4971747;28;20503;-62
2022/02/19 04:30:38;;;;;;;3.42;1.20;;;;;;;;;;4971362;28;20033;-63
2022/02/19 04:33:04;;;;;;;3.80;1.70;;;;;;;;;;4971263;28;20029;-62
2022/02/19 04:35:31;;;;;;;3.00;1.48;;;;;;;;;;4972299;28;20345;-62
2022/02/19 04:37:57;;;;;;;2.30;0.93;;;;;;;;;;4969443;28;20384;-62
2022/02/19 04:40:23;;;;;;;3.78;1.20;;;;;;;;;;4971381;28;20321;-62
2022/02/19 04:42:49;;;;;;;2.20;1.10;;;;;;;;;;4970751;28;20344;-63
2022/02/19 04:45:17;;;;;;;2.88;0.95;;;;;;;;;;4970413;28;20392;-62
2022/02/19 04:47:43;;;;;;;1.58;1.05;;;;;;;;;;4970609;28;20380;-62
2022/02/19 04:50:10;;;;;;;4.40;1.23;;;;;;;;;;4971126;28;20044;-62
2022/02/19 04:52:35;;;;;;;1.40;0.73;;;;;;;;;;4971974;28;20372;-62
2022/02/19 04:55:01;;;;;;;2.92;1.35;;;;;;;;;;4972883;28;20341;-62
2022/02/19 04:57:26;;;;;;;3.03;1.52;;;;;;;;;;4970694;28;20409;-62
2022/02/19 04:59:52;;;;;;;2.47;1.05;;;;;;;;;;4970951;28;20535;-62
2022/02/19 05:02:18;;;;;;;3.80;1.10;;;;;;;;;;4970508;28;20029;-62
2022/02/19 05:04:43;;;;;;;3.17;0.98;;;;;;;;;;4970982;28;20456;-62
2022/02/19 05:07:09;;;;;;;1.85;0.90;;;;;;;;;;4970539;28;20383;-62
2022/02/19 05:09:35;;;;;;;2.95;1.20;;;;;;;;;;4970021;28;20566;-62
2022/02/19 05:12:00;;;;;;;5.65;1.33;;;;;;;;;;4970241;28;20375;-62
2022/02/19 05:14:26;;;;;;;4.10;1.02;;;;;;;;;;4969952;28;20059;-63
2022/02/19 05:16:51;;;;;;;5.13;1.55;;;;;;;;;;4970354;28;20472;-62
2022/02/19 05:19:16;;;;;;;5.55;1.52;;;;;;;;;;4970066;28;20475;-62
2022/02/19 05:21:42;;;;;;;3.70;1.45;;;;;;;;;;4970493;28;20337;-64
2022/02/19 05:24:07;;;;;;;2.17;0.93;;;;;;;;;;4970163;28;20513;-62
2022/02/19 05:26:32;;;;;;;5.05;1.23;;;;;;;;;;4971174;28;20345;-62
2022/02/19 05:28:57;;;;;;;3.72;1.17;;;;;;;;;;4971569;28;20306;-62
2022/02/19 05:31:23;;;;;;;2.15;1.00;;;;;;;;;;4970105;28;20461;-62
2022/02/19 05:33:48;;;;;;;2.92;1.42;;;;;;;;;;4970087;28;20396;-62
2022/02/19 05:36:14;;;;;;;4.63;1.10;;;;;;;;;;4971059;28;20412;-62
2022/02/19 05:38:39;;;;;;;2.00;1.00;;;;;;;;;;4969681;28;20466;-63
2022/02/19 05:41:04;;;;;;;5.32;1.10;;;;;;;;;;4969784;28;20515;-62
2022/02/19 05:43:29;;;;;;;2.83;1.23;;;;;;;;;;4970737;28;20337;-62
2022/02/19 05:45:55;;;;;;;3.40;0.95;;;;;;;;;;4969728;28;20341;-62
2022/02/19 05:48:20;;;;;;;2.45;0.90;;;;;;;;;;4971490;28;20436;-62
2022/02/19 05:50:46;;;;;;;5.43;0.80;;;;;;;;;;4970399;28;20434;-63
2022/02/19 05:53:12;;;;;;;6.25;1.58;;;;;;;;;;4970287;28;20461;-62
2022/02/19 05:55:37;;;;;;;1.88;0.93;;;;;;;;;;4969567;28;20457;-62
2022/02/19 05:58:03;;;;;;;3.53;1.50;;;;;;;;;;4969321;28;20433;-62
2022/02/19 06:00:28;;;;;;;2.45;1.00;;;;;;;;;;4969768;28;20075;-62
2022/02/19 06:02:53;;;;;;;3.45;1.17;;;;;;;;;;4969841;28;20353;-62
2022/02/19 06:05:19;;;;;;;1.60;0.95;;;;;;;;;;4969450;28;20444;-62
2022/02/19 06:07:44;;;;;;;4.05;1.60;;;;;;;;;;4969231;28;20133;-62
2022/02/19 06:10:10;;;;;;;4.82;1.42;;;;;;;;;;4969440;28;20141;-62
2022/02/19 06:12:35;;;;;;;7.70;2.13;;;;;;;;;;4969818;28;20033;-63
2022/02/19 06:15:00;;;;;;;2.50;1.40;;;;;;;;;;4969772;28;20509;-62
2022/02/19 06:17:26;;;;;;;3.65;1.30;;;;;;;;;;4969348;28;20356;-62
2022/02/19 06:19:51;;;;;;;2.58;1.20;;;;;;;;;;4969351;28;20586;-62
2022/02/19 06:22:17;;;;;;;3.42;0.90;;;;;;;;;;4969291;28;20380;-62
2022/02/19 06:24:43;;;;;;;1.83;1.00;;;;;;;;;;4969423;28;20400;-62
2022/02/19 06:27:08;;;;;;;5.68;1.58;;;;;;;;;;4969830;28;20057;-62
2022/02/19 06:29:33;;;;;;;1.27;0.77;;;;;;;;;;4969435;28;20376;-63
2022/02/19 06:31:58;;;;;;;3.67;1.30;;;;;;;;;;4970293;28;20436;-63
2022/02/19 06:34:24;;;;;;;6.22;1.15;;;;;;;;;;4969383;28;20423;-62
2022/02/19 06:36:49;;;;;;;3.22;1.02;;;;;;;;;;4968850;28;20451;-62
2022/02/19 06:39:15;;;;;;;2.70;1.00;;;;;;;;;;4969797;28;20394;-62
2022/02/19 06:41:40;;;;;;;2.72;1.13;;;;;;;;;;4968800;28;20109;-62
2022/02/19 06:44:05;;;;;;;1.85;1.08;;;;;;;;;;4969255;28;20029;-63
2022/02/19 06:46:31;;;;;;;3.50;1.50;;;;;;;;;;4969545;28;20433;-62
2022/02/19 06:48:56;;;;;;;2.13;1.13;;;;;;;;;;4973870;28;20326;-63
2022/02/19 06:51:22;;;;;;;1.88;1.00;;;;;;;;;;4973115;28;20407;-62
2022/02/19 06:53:47;;;;;;;3.67;1.38;;;;;;;;;;4973600;28;20546;-62
2022/02/19 06:56:12;;;;;;;2.92;1.60;;;;;;;;;;4973948;28;20332;-62
2022/02/19 06:58:38;;;;;;;4.97;1.60;;;;;;;;;;4973756;28;20345;-62
2022/02/19 07:01:03;;;;;;;3.95;1.45;;;;;;;;;;4972432;28;20429;-62
2022/02/19 07:03:29;;;;;;;3.75;1.77;;;;;;;;;;4972804;28;20441;-63
2022/02/19 07:05:55;;;;;;;4.82;2.00;;;;;;;;;;4972177;28;20461;-62
2022/02/19 07:08:21;;;;;;;4.63;1.95;;;;;;;;;;4972545;28;20093;-62
2022/02/19 07:10:47;;;;;;;3.50;1.48;;;;;;;;;;4972540;28;20125;-62
2022/02/19 07:13:13;;;;;;;3.50;1.77;;;;;;;;;;4972794;28;20535;-63
2022/02/19 07:15:39;;;;;;;4.80;1.67;;;;;;;;;;4972854;28;20331;-62
2022/02/19 07:18:04;;;;;;;3.53;1.25;;;;;;;;;;4973849;28;20360;-63
2022/02/19 07:20:34;;;;;;;4.10;2.17;;;;;;;;;;4972304;28;20336;-62
2022/02/19 07:22:59;;;;;;;7.32;2.22;;;;;;;;;;4972748;28;20348;-62
2022/02/19 07:25:24;;;;;;;2.28;1.30;;;;;;;;;;4972492;28;20341;-63
2022/02/19 07:27:50;;;;;;;4.20;1.45;;;;;;;;;;4973157;28;20091;-62
2022/02/19 07:30:19;;;;;;;3.15;1.55;;;;;;;;;;4972864;28;20093;-62
2022/02/19 07:32:44;;;;;;;6.13;1.90;;;;;;;;;;4972154;28;20321;-62
2022/02/19 07:35:10;;;;;;;5.00;1.55;;;;;;;;;;4972266;28;20068;-62
2022/02/19 07:37:37;;;;;;;5.47;1.90;;;;;;;;;;4971992;28;20029;-63
2022/02/19 07:40:03;;;;;;;6.82;1.27;;;;;;;;;;4971997;28;20440;-63
2022/02/19 07:42:29;;;;;;;2.72;1.52;;;;;;;;;;4971967;28;20420;-62
2022/02/19 07:44:56;;;;;;;3.45;1.52;;;;;;;;;;4972008;28;20530;-63
2022/02/19 07:47:25;;;;;;;5.47;2.20;;;;;;;;;;4971927;28;20330;-62
2022/02/19 07:58:18;;;;;;;3.58;1.27;;;;;;;;;;4973004;28;20459;-62
2022/02/19 08:00:48;;;;;;;6.30;1.60;;;;;;;;;;4971978;28;20044;-63
2022/02/19 08:03:18;;;;;;;3.17;1.50;;;;;;;;;;4972331;28;20416;-63
2022/02/19 08:05:43;;;;;;;4.47;1.65;;;;;;;;;;4970872;28;20552;-62
2022/02/19 08:08:09;;;;;;;5.55;1.90;;;;;;;;;;4973107;28;20458;-64
2022/02/19 08:10:38;;;;;;;5.32;1.45;;;;;;;;;;4971792;28;20620;-62
2022/02/19 08:13:04;;;;;;;4.53;1.33;;;;;;;;;;4971828;28;20030;-63
2022/02/19 08:15:30;;;;;;;3.67;1.83;;;;;;;;;;4971654;28;20377;-63
2022/02/19 08:17:55;;;;;;;3.55;1.35;;;;;;;;;;4971383;28;20320;-63
2022/02/19 08:20:21;;;;;;;4.88;1.65;;;;;;;;;;4971529;28;20453;-63
2022/02/19 08:22:46;;;;;;;4.18;1.70;;;;;;;;;;4971442;28;20436;-63
2022/02/19 08:25:11;;;;;;;5.03;1.20;;;;;;;;;;4971338;28;20188;-62
2022/02/19 08:27:39;;;;;;;6.05;1.70;;;;;;;;;;4970830;28;20358;-62
2022/02/19 08:30:06;;;;;;;2.60;1.10;;;;;;;;;;4971199;28;20356;-63
2022/02/19 08:32:31;;;;;;;3.60;1.40;;;;;;;;;;4971013;28;20456;-62
2022/02/19 08:34:57;;;;;;;3.83;1.75;;;;;;;;;;4971253;28;20532;-63
2022/02/19 08:37:23;;;;;;;3.53;1.30;;;;;;;;;;4971232;28;20022;-62
2022/02/19 08:39:48;;;;;;;2.28;1.25;;;;;;;;;;4973441;28;20025;-63
2022/02/19 08:42:14;;;;;;;3.20;1.48;;;;;;;;;;4970780;28;20460;-63
2022/02/19 08:44:39;;;;;;;4.00;1.63;;;;;;;;;;4970929;28;20033;-62
2022/02/19 08:47:04;;;;;;;2.85;1.20;;;;;;;;;;4971071;28;20567;-62
2022/02/19 08:49:31;;;;;;;3.75;1.25;;;;;;;;;;4972223;28;20408;-62
2022/02/19 08:51:56;;;;;;;3.67;1.50;;;;;;;;;;4970839;28;20399;-62
2022/02/19 08:54:22;;;;;;;2.95;1.58;;;;;;;;;;4971175;28;20422;-62
2022/02/19 08:56:48;;;;;;;5.32;1.42;;;;;;;;;;4970470;28;20341;-63
2022/02/19 08:59:13;;;;;;;5.30;1.90;;;;;;;;;;4970712;28;20066;-63
2022/02/19 09:01:39;;;;;;;3.83;1.30;;;;;;;;;;4970743;28;20034;-63
2022/02/19 09:04:06;;;;;;;3.70;1.33;;;;;;;;;;4971514;28;20345;-62
2022/02/19 09:06:32;;;;;;;6.97;1.60;;;;;;;;;;4970515;28;20360;-62
2022/02/19 09:08:57;;;;;;;6.55;1.50;;;;;;;;;;4970491;28;20336;-63
2022/02/19 09:11:22;;;;;;;2.83;1.30;;;;;;;;;;4970087;28;20542;-62
2022/02/19 09:13:48;;;;;;;7.88;1.30;;;;;;;;;;4970391;28;20399;-63
2022/02/19 09:16:13;;;;;;;3.00;0.88;;;;;;;;;;4971041;28;20494;-62
2022/02/19 09:18:38;;;;;;;3.10;1.35;;;;;;;;;;4970557;28;20483;-62
2022/02/19 09:21:04;;;;;;;5.55;1.85;;;;;;;;;;4970767;28;20487;-63
2022/02/19 09:23:29;;;;;;;3.20;1.33;;;;;;;;;;4970417;28;20037;-62
2022/02/19 09:25:54;;;;;;;2.60;1.40;;;;;;;;;;4970408;28;20453;-63
2022/02/19 09:28:21;;;;;;;2.63;1.10;;;;;;;;;;4969973;28;20413;-62
2022/02/19 09:30:47;;;;;;;2.97;1.20;;;;;;;;;;4970081;28;20428;-63
2022/02/19 09:33:12;;;;;;;4.78;1.10;;;;;;;;;;4970364;28;20321;-63
2022/02/19 09:35:37;;;;;;;3.60;1.17;;;;;;;;;;4969885;28;20372;-63
2022/02/19 09:38:03;;;;;;;4.38;1.20;;;;;;;;;;4970333;28;20428;-63
2022/02/19 09:40:29;;;;;;;4.13;1.48;;;;;;;;;;4971175;28;20359;-63
2022/02/19 09:42:54;;;;;;;2.92;0.98;;;;;;;;;;4984790;28;20417;-62
2022/02/19 09:45:23;;;;;;;8.90;1.88;;;;;;;;;;4970950;28;20099;-62
2022/02/19 09:47:49;;;;;;;2.50;1.10;;;;;;;;;;4971285;28;20996;-63
2022/02/19 09:50:15;;;;;;;5.07;1.23;;;;;;;;;;4985091;28;20486;-63
2022/02/19 09:52:40;;;;;;;2.75;1.48;;;;;;;;;;4969713;28;20436;-63
2022/02/19 09:55:06;;;;;;;3.30;1.15;;;;;;;;;;4970011;28;20468;-62
2022/02/19 09:57:32;;;;;;;2.25;1.33;;;;;;;;;;4969801;28;20425;-62
2022/02/19 09:59:57;;;;;;;3.15;1.50;;;;;;;;;;4970321;28;20025;-63
2022/02/19 10:02:33;;;;;;;4.65;1.10;;;;;;;;;;4969608;28;20122;-63
2022/02/19 10:05:19;;;;;;;2.08;1.05;;;;;;;;;;4970817;28;20030;-62
2022/02/19 10:07:59;;;;;;;2.15;0.80;;;;;;;;;;4968998;28;20586;-62
2022/02/19 10:10:25;;;;;;;2.90;1.00;;;;;;;;;;4969359;28;20439;-62
2022/02/19 10:12:51;;;;;;;1.92;0.88;;;;;;;;;;4970477;28;20336;-62
2022/02/19 10:15:17;;;;;;;1.45;0.82;;;;;;;;;;4970271;28;20416;-63
2022/02/19 10:17:42;;;;;;;1.60;0.73;;;;;;;;;;4969457;28;20445;-62
2022/02/19 10:20:09;;;;;;;2.83;1.55;;;;;;;;;;4969224;28;20044;-62
2022/02/19 10:22:42;;;;;;;5.55;1.25;;;;;;;;;;4968702;28;20029;-62
2022/02/19 10:25:09;;;;;;;3.38;1.00;;;;;;;;;;4969188;28;20136;-62
2022/02/19 10:28:00;;;;;;;3.90;1.20;;;;;;;;;;4970366;28;20313;-63
2022/02/19 10:30:27;;;;;;;4.13;1.05;;;;;;;;;;4969410;28;20344;-62
2022/02/19 10:33:04;;;;;;;3.85;1.17;;;;;;;;;;4969541;28;20452;-63
2022/02/19 10:35:40;;;;;;;2.97;1.23;;;;;;;;;;4968958;28;20448;-62
2022/02/19 10:38:16;;;;;;;3.58;1.50;;;;;;;;;;4969112;28;20344;-63
2022/02/19 10:40:52;;;;;;;5.18;0.80;;;;;;;;;;4968908;28;20457;-64
2022/02/19 10:43:31;;;;;;;1.63;0.90;;;;;;;;;;4970196;28;20451;-63
2022/02/19 10:46:00;;;;;;;2.55;0.98;;;;;;;;;;4968769;28;20503;-63
2022/02/19 10:48:31;;;;;;;2.42;0.90;;;;;;;;;;4968892;28;20439;-63
2022/02/19 10:51:15;;;;;;;2.47;0.80;;;;;;;;;;4969349;28;20321;-63
2022/02/19 10:53:45;;;;;;;5.28;0.80;;;;;;;;;;4968847;28;20400;-62
2022/02/19 10:56:15;;;;;;;2.13;0.80;;;;;;;;;;4969275;28;20328;-63
2022/02/19 10:59:08;;;;;;;3.63;1.27;;;;;;;;;;4969365;28;20376;-62
2022/02/19 11:01:43;;;;;;;1.80;0.70;;;;;;;;;;4967895;28;20423;-63
2022/02/19 11:04:14;;;;;;;2.92;1.27;;;;;;;;;;4968798;28;20398;-63
2022/02/19 11:06:39;;;;;;;6.88;1.27;;;;;;;;;;4968887;28;20445;-63
2022/02/19 11:09:06;;;;;;;1.27;0.73;;;;;;;;;;4970270;28;20421;-62
2022/02/19 11:11:36;;;;;;;2.33;0.77;;;;;;;;;;4968836;28;20432;-63
2022/02/19 11:14:09;;;;;;;4.05;0.98;;;;;;;;;;4968847;28;20552;-63
2022/02/19 11:16:36;;;;;;;2.45;0.70;;;;;;;;;;4968809;28;20399;-62
2022/02/19 11:19:03;;;;;;;5.13;1.10;;;;;;;;;;4970166;28;20415;-63
2022/02/19 11:21:29;;;;;;;1.45;0.77;;;;;;;;;;4969401;28;20107;-63
2022/02/19 11:23:59;;;;;;;3.50;0.95;;;;;;;;;;4968797;28;20515;-62
2022/02/19 11:26:24;;;;;;;1.80;0.70;;;;;;;;;;4969214;28;20344;-63
2022/02/19 11:28:51;;;;;;;4.32;1.02;;;;;;;;;;4968763;28;20060;-62
2022/02/19 11:31:17;;;;;;;3.17;0.85;;;;;;;;;;4968761;28;20434;-63
2022/02/19 11:33:50;;;;;;;2.92;1.08;;;;;;;;;;4985512;28;20425;-62
2022/02/19 11:36:24;;;;;;;1.73;0.80;;;;;;;;;;4973207;28;20463;-63
2022/02/19 11:38:50;;;;;;;4.03;0.85;;;;;;;;;;4972478;28;20411;-63
2022/02/19 11:41:36;;;;;;;2.72;1.30;;;;;;;;;;4972297;28;20360;-63
2022/02/19 11:44:03;;;;;;;1.20;0.82;;;;;;;;;;4973884;28;20432;-62
2022/02/19 11:46:29;;;;;;;1.77;0.70;;;;;;;;;;4972940;28;20282;-63
2022/02/19 11:48:54;;;;;;;1.30;0.70;;;;;;;;;;4973192;28;20340;-63
2022/02/19 11:51:27;;;;;;;1.83;0.93;;;;;;;;;;4971595;28;20515;-63
2022/02/19 11:54:14;;;;;;;1.33;0.77;;;;;;;;;;4972291;28;20422;-63
2022/02/19 11:56:41;;;;;;;2.80;1.15;;;;;;;;;;4964489;28;20124;-62
2022/02/19 11:59:09;;;;;;;3.00;0.98;;;;;;;;;;4971823;28;20416;-67
2022/02/19 12:01:35;;;;;;;2.28;1.10;;;;;;;;;;4971924;28;20482;-63
2022/02/19 12:04:10;;;;;;;5.00;0.98;;;;;;;;;;4972052;28;20400;-63
2022/02/19 12:07:04;;;;;;;2.50;0.75;;;;;;;;;;4971663;28;20576;-63
2022/02/19 12:09:30;;;;;;;1.38;0.93;;;;;;;;;;4970412;28;20434;-63
2022/02/19 12:11:55;;;;;;;1.60;0.70;;;;;;;;;;4986855;28;20385;-62
2022/02/19 12:14:53;;;;;;;3.03;1.10;;;;;;;;;;4971814;28;20116;-63
2022/02/19 12:17:22;;;;;;;2.00;0.82;;;;;;;;;;4971428;28;20377;-63
2022/02/19 12:19:58;;;;;;;1.52;0.82;;;;;;;;;;4973060;28;20424;-63
2022/02/19 12:22:51;;;;;;;1.40;0.80;;;;;;;;;;4971567;28;20318;-62
2022/02/19 12:25:16;;;;;;;2.75;1.23;;;;;;;;;;4969153;28;20549;-63
2022/02/19 12:27:43;;;;;;;1.98;0.90;;;;;;;;;;4971984;28;20417;-62
2022/02/19 12:30:25;;;;;;;6.35;1.67;;;;;;;;;;4971844;28;20112;-64
2022/02/19 12:32:53;;;;;;;1.45;0.88;;;;;;;;;;4971562;28;20384;-62
2022/02/19 12:35:18;;;;;;;2.72;1.15;;;;;;;;;;4971212;28;20588;-62
2022/02/19 12:37:44;;;;;;;5.07;1.80;;;;;;;;;;4970920;28;20492;-63
2022/02/19 12:40:15;;;;;;;4.55;1.58;;;;;;;;;;4971120;28;20413;-62
2022/02/19 12:42:46;;;;;;;5.50;1.30;;;;;;;;;;4971493;28;20021;-62
2022/02/19 12:45:11;;;;;;;3.53;1.45;;;;;;;;;;4970465;28;20328;-62
2022/02/19 12:47:38;;;;;;;3.33;1.85;;;;;;;;;;4971100;28;20348;-63
2022/02/19 12:50:05;;;;;;;3.05;1.48;;;;;;;;;;4971131;28;20390;-62
2022/02/19 12:52:32;;;;;;;4.95;1.85;;;;;;;;;;4970718;28;20392;-62
2022/02/19 12:54:57;;;;;;;6.57;1.95;;;;;;;;;;4970727;28;20372;-63
2022/02/19 12:57:23;;;;;;;5.43;2.00;;;;;;;;;;4970901;28;20370;-63
2022/02/19 12:59:53;;;;;;;7.93;2.60;;;;;;;;;;4970583;28;20479;-63
2022/02/19 13:02:21;;;;;;;7.57;2.78;;;;;;;;;;4985536;28;20379;-63
2022/02/19 13:04:48;;;;;;;9.13;3.00;;;;;;;;;;4970462;28;20415;-62
2022/02/19 13:07:22;;;;;;;5.95;2.42;;;;;;;;;;4970077;28;20467;-63
2022/02/19 13:09:50;;;;;;;3.70;1.85;;;;;;;;;;4970482;28;20349;-62
2022/02/19 13:12:16;;;;;;;3.40;1.95;;;;;;;;;;4970384;28;20491;-62
2022/02/19 13:14:51;;;;;;;5.55;2.10;;;;;;;;;;4970788;28;20574;-62
2022/02/19 13:17:16;;;;;;;5.03;2.08;;;;;;;;;;4970256;28;20393;-63
2022/02/19 13:19:42;;;;;;;5.50;2.17;;;;;;;;;;4971122;28;20434;-62
2022/02/19 13:22:19;;;;;;;6.00;1.50;;;;;;;;;;4970480;28;20455;-63
2022/02/19 13:24:45;;;;;;;4.18;1.60;;;;;;;;;;4971040;28;20081;-63
2022/02/19 13:27:20;;;;;;;4.05;1.90;;;;;;;;;;4970382;28;20485;-62
2022/02/19 13:29:57;;;;;;;3.47;1.48;;;;;;;;;;4970120;28;20467;-62
2022/02/19 13:32:30;;;;;;;3.67;1.45;;;;;;;;;;4970618;28;20379;-63
2022/02/19 13:35:01;;;;;;;3.38;1.50;;;;;;;;;;4970083;28;20464;-63
2022/02/19 13:37:29;;;;;;;5.72;2.10;;;;;;;;;;4969898;28;20107;-62
2022/02/19 13:40:05;;;;;;;5.32;1.67;;;;;;;;;;4969824;28;20471;-62
2022/02/19 13:42:40;;;;;;;7.38;2.03;;;;;;;;;;4969805;28;20057;-62
2022/02/19 13:45:06;;;;;;;7.25;2.20;;;;;;;;;;4970097;28;20490;-63
2022/02/19 13:47:32;;;;;;;6.82;2.97;;;;;;;;;;4968662;28;20041;-62
2022/02/19 13:49:57;;;;;;;5.55;2.50;;;;;;;;;;4969401;28;20034;-62
2022/02/19 13:52:27;;;;;;;7.38;2.00;;;;;;;;;;4970968;28;20431;-63
2022/02/19 13:54:57;;;;;;;8.05;3.38;;;;;;;;;;4969550;28;20405;-62
2022/02/19 13:57:24;;;;;;;10.75;2.50;;;;;;;;;;4970639;28;20478;-63
2022/02/19 13:59:59;;;;;;;10.52;2.92;;;;;;;;;;4969181;28;20535;-62
2022/02/19 14:02:24;;;;;;;5.63;2.30;;;;;;;;;;4969888;28;20486;-62
2022/02/19 14:04:56;;;;;;;15.55;2.88;;;;;;;;;;4969220;28;20453;-63
2022/02/19 14:07:21;;;;;;;8.82;2.67;;;;;;;;;;4969327;28;20365;-62
2022/02/19 14:10:03;;;;;;;5.85;2.33;;;;;;;;;;4970177;28;20356;-62
2022/02/19 14:12:36;;;;;;;9.63;2.10;;;;;;;;;;4969198;28;20507;-62
2022/02/19 14:15:02;;;;;;;6.32;1.98;;;;;;;;;;4969671;28;20393;-62
2022/02/19 14:17:37;;;;;;;9.02;2.08;;;;;;;;;;4969201;28;20487;-62
2022/02/19 14:20:08;;;;;;;5.43;2.20;;;;;;;;;;4970014;28;20025;-63
2022/02/19 14:22:44;;;;;;;7.70;2.47;;;;;;;;;;4969965;28;20463;-62
2022/02/19 14:25:25;;;;;;;4.78;2.00;;;;;;;;;;4971101;28;20322;-62
2022/02/19 14:27:51;;;;;;;4.55;1.80;;;;;;;;;;4969088;28;20369;-63
2022/02/19 14:30:18;;;;;;;6.15;1.85;;;;;;;;;;4968686;28;20387;-63
2022/02/19 14:32:43;;;;;;;8.82;2.22;;;;;;;;;;4970127;28;20448;-63
2022/02/19 14:35:10;;;;;;;4.55;2.33;;;;;;;;;;4969087;28;20503;-62
2022/02/19 14:37:35;;;;;;;5.25;2.22;;;;;;;;;;4970022;28;20441;-63
2022/02/19 14:40:00;;;;;;;6.40;1.70;;;;;;;;;;4984733;28;20052;-62
2022/02/19 14:42:25;;;;;;;6.70;2.35;;;;;;;;;;4969201;28;20329;-63
2022/02/19 14:44:51;;;;;;;5.05;1.90;;;;;;;;;;4970167;28;20056;-62
2022/02/19 14:47:16;;;;;;;5.18;1.83;;;;;;;;;;4969673;28;20376;-63
2022/02/19 14:49:42;;;;;;;4.25;1.67;;;;;;;;;;4968797;28;20033;-63
2022/02/19 14:52:08;;;;;;;6.18;2.42;;;;;;;;;;4969412;28;20381;-63